UMMS Airport Information

Runway Information
Runway 13 Length 11946 ft width 197 ft
Elevation 640 ft Threshold 0 ft Heading 139
Runway 31 Length 11946 ft Width 197 ft
Elevation 670 ft Threshold 0 ft Heading 319
Airport Frequencies
Type APP Name MINSK APP Frequency 125.9 MHZ
Type ATIS Name ATIS Frequency 128.85 MHZ
Type GND Name GND Frequency 121.7 MHZ
Type PMSV Name MINSK VOLM Frequency 126.675 MHZ
Type RDR Name MINSK RADA Frequency 125.25 MHZ
Type TWR Name TWR Frequency 118.3 MHZ
Airport Navaids
Type NDB Name Minsk-2 Frequency 635 KHZ
Type VOR-DME Name Minsk-2 Frequency 113600 KHZ
Type NDB Name Minsk-2 Frequency 635 KHZ
Airport Weather Information & NOTAM
ADDS - METARS form results

(1521 UTC 26 November 2020)
Data provider http://aviationweather.gov/metar/data/
 
METAR text: UMMS 261500Z 22003G07MPS 180V280 4800 BR BKN008 00/M01 Q1015 R13L/CLRD// R13R/////// NOSIG
Conditions at: UMMS (MINSK , BY) observed 1500 UTC 26 November 2020
Temperature: 0.0°C (32°F)
Dewpoint: -1.0°C (30°F) [RH = 93%]
Pressure (altimeter): 29.97 inches Hg (1015.0 mb)
Winds: from the SW (220 degrees) at 7 MPH (6 knots; 3.1 m/s)
gusting to 16 MPH (14 knots; 7.2 m/s)
Visibility: 2.98 miles (4.80 km)
Ceiling: 800 feet AGL
Clouds: broken clouds at 800 feet AGL
Weather: BR  (mist)

METAR text: UMMS 261456Z 22005G08MPS 5000 BR BKN009 00/M01 Q1015 R13L/CLRD// R13R/////// NOSIG
Conditions at: UMMS (MINSK , BY) observed 1456 UTC 26 November 2020
Temperature: 0.0°C (32°F)
Dewpoint: -1.0°C (30°F) [RH = 93%]
Pressure (altimeter): 29.97 inches Hg (1015.0 mb)
Winds: from the SW (220 degrees) at 12 MPH (10 knots; 5.1 m/s)
gusting to 18 MPH (16 knots; 8.2 m/s)
Visibility: 3 miles ( 5 km)
Ceiling: 900 feet AGL
Clouds: broken clouds at 900 feet AGL
Weather: BR  (mist)

METAR text: UMMS 261430Z 24005G09MPS 200V260 5000 BR BKN011 01/M01 Q1015 R13L/CLRD// R13R/////// NOSIG
Conditions at: UMMS (MINSK , BY) observed 1430 UTC 26 November 2020
Temperature: 1.0°C (34°F)
Dewpoint: -1.0°C (30°F) [RH = 86%]
Pressure (altimeter): 29.97 inches Hg (1015.0 mb)
Winds: from the WSW (240 degrees) at 12 MPH (10 knots; 5.1 m/s)
gusting to 20 MPH (17 knots; 8.7 m/s)
Visibility: 3 miles ( 5 km)
Ceiling: 1100 feet AGL
Clouds: broken clouds at 1100 feet AGL
Weather: BR  (mist)

METAR text: UMMS 261427Z 23004G07MPS 200V260 5000 BR BKN011 01/M01 Q1015 R13L/CLRD// R13R/////// NOSIG
Conditions at: UMMS (MINSK , BY) observed 1427 UTC 26 November 2020
Temperature: 1.0°C (34°F)
Dewpoint: -1.0°C (30°F) [RH = 86%]
Pressure (altimeter): 29.97 inches Hg (1015.0 mb)
Winds: from the SW (230 degrees) at 9 MPH (8 knots; 4.1 m/s)
gusting to 16 MPH (14 knots; 7.2 m/s)
Visibility: 3 miles ( 5 km)
Ceiling: 1100 feet AGL
Clouds: broken clouds at 1100 feet AGL
Weather: BR  (mist)

Forecast for: AMD
Text: TAF AMD UMMS 261425Z 2614/2712 24005G10MPS 4000 BR BKN004 TX03/2614Z TNM00/2703Z
Forecast period: 1400 UTC 26 November 2020 to 1200 UTC 27 November 2020
Forecast type: FROM: standard forecast or significant change
Winds: from the WSW (240 degrees) at 12 MPH (10 knots; 5.1 m/s)
gusting to 22 MPH (19 knots; 9.8 m/s)
Visibility: 2.49 miles (4.01 km)
Ceiling: 400 feet AGL
Clouds: broken clouds at 400 feet AGL
Weather: BR  (mist)
Text: TEMPO 2614/2622 0500 -FZDZ FZFG OVC002
Forecast period: 1400 to 2200 UTC 26 November 2020
Forecast type: TEMPORARY: The following changes expected for less than half the time period
Visibility: 0.31 miles (0.50 km)
Ceiling: 200 feet AGL
Clouds: overcast cloud deck at 200 feet AGL
Weather: -FZDZ FZFG  (light freezing drizzle, freezing fog)
Text: TEMPO 2622/2712 27007G12MPS 1200 SHSNRA BKN003 BKN012CB
Forecast period: 2200 UTC 26 November 2020 to 1200 UTC 27 November 2020
Forecast type: TEMPORARY: The following changes expected for less than half the time period
Winds: from the W (270 degrees) at 16 MPH (14 knots; 7.2 m/s)
gusting to 26 MPH (23 knots; 11.8 m/s)
Visibility: 0.75 miles (1.21 km)
Ceiling: 300 feet AGL
Clouds: broken clouds at 300 feet AGL
broken clouds at 1200 feet AGL
Weather: SHSN SHRA  (snow showers, rain showers)